createdAt,value
2022-11-20T00:02:40.350Z,15.90
2022-11-20T00:05:43.239Z,15.85
2022-11-20T00:08:46.082Z,15.48
2022-11-20T00:11:49.071Z,14.90
2022-11-20T00:14:51.663Z,15.60
2022-11-20T00:17:54.563Z,15.17
2022-11-20T00:21:09.222Z,15.80
2022-11-20T00:24:12.283Z,15.60
2022-11-20T00:27:14.779Z,14.73
2022-11-20T00:30:17.806Z,15.27
2022-11-20T00:33:20.479Z,14.47
2022-11-20T00:36:25.735Z,15.10
2022-11-20T00:39:28.363Z,15.07
2022-11-20T00:42:33.810Z,15.02
2022-11-20T00:45:36.398Z,15.33
2022-11-20T00:48:39.352Z,15.80
2022-11-20T00:51:41.911Z,14.70
2022-11-20T00:54:44.854Z,16.65
2022-11-20T00:57:47.376Z,15.00
2022-11-20T01:00:50.872Z,15.57
2022-11-20T01:03:55.429Z,15.03
2022-11-20T01:06:58.380Z,16.80
2022-11-20T01:10:00.997Z,15.45
2022-11-20T01:13:25.664Z,14.95
2022-11-20T01:16:32.802Z,13.57
2022-11-20T01:19:35.728Z,15.33
2022-11-20T01:22:38.286Z,14.82
2022-11-20T01:25:41.217Z,14.63
2022-11-20T01:28:44.128Z,13.45
2022-11-20T01:31:47.170Z,15.33
2022-11-20T01:34:49.678Z,14.43
2022-11-20T01:37:52.636Z,14.68
2022-11-20T01:40:57.619Z,13.10
2022-11-20T01:44:01.425Z,14.70
2022-11-20T01:47:06.262Z,14.17
2022-11-20T01:50:17.969Z,14.07
2022-11-20T01:53:25.143Z,16.23
2022-11-20T01:56:29.942Z,15.32
2022-11-20T01:59:32.734Z,16.62
2022-11-20T02:02:37.622Z,17.27
2022-11-20T02:05:48.957Z,17.10
2022-11-20T02:08:52.946Z,17.33
2022-11-20T02:11:57.144Z,17.37
2022-11-20T02:14:59.822Z,16.87
2022-11-20T02:18:02.739Z,17.43
2022-11-20T02:21:14.464Z,16.98
2022-11-20T02:24:19.758Z,16.02
2022-11-20T02:27:23.500Z,17.10
2022-11-20T02:30:26.354Z,15.95
2022-11-20T02:33:28.962Z,12.93
2022-11-20T02:36:35.065Z,14.60
2022-11-20T02:39:37.756Z,11.65
2022-11-20T02:42:41.344Z,12.80
2022-11-20T02:45:44.301Z,11.90
2022-11-20T02:48:47.129Z,11.53
2022-11-20T02:51:50.826Z,10.90
2022-11-20T02:54:54.394Z,10.93
2022-11-20T02:57:57.857Z,10.20
2022-11-20T03:01:01.213Z,10.40
2022-11-20T03:04:04.069Z,9.83
2022-11-20T03:07:07.131Z,9.37
2022-11-20T03:10:10.078Z,10.75
2022-11-20T03:13:12.976Z,10.50
2022-11-20T03:16:20.882Z,9.93
2022-11-20T03:19:24.155Z,9.70
2022-11-20T03:22:26.840Z,11.13
2022-11-20T03:25:29.848Z,10.98
2022-11-20T03:28:32.474Z,10.70
2022-11-20T03:31:43.810Z,13.27
2022-11-20T03:34:46.347Z,11.63
2022-11-20T03:37:49.663Z,11.40
2022-11-20T03:40:52.266Z,10.77
2022-11-20T03:43:57.929Z,12.05
2022-11-20T03:47:00.480Z,10.82
2022-11-20T03:50:04.211Z,10.23
2022-11-20T03:53:06.834Z,11.40
2022-11-20T03:56:11.331Z,10.30
2022-11-20T03:59:14.042Z,9.77
2022-11-20T04:02:16.879Z,10.88
2022-11-20T04:05:19.894Z,12.13
2022-11-20T04:08:22.560Z,10.50
2022-11-20T04:11:31.440Z,11.90
2022-11-20T04:14:34.042Z,10.55
2022-11-20T04:17:37.115Z,11.63
2022-11-20T04:20:39.757Z,10.47
2022-11-20T04:23:42.638Z,11.03
2022-11-20T04:26:45.207Z,11.65
2022-11-20T04:29:48.140Z,12.02
2022-11-20T04:32:50.694Z,12.70
2022-11-20T04:35:53.613Z,13.97
2022-11-20T04:39:01.298Z,14.00
2022-11-20T04:42:23.131Z,13.73
2022-11-20T04:45:25.731Z,14.95
2022-11-20T04:48:30.397Z,13.55
2022-11-20T04:51:33.942Z,12.70
2022-11-20T04:54:36.845Z,12.93
2022-11-20T04:57:39.403Z,13.80
2022-11-20T05:00:42.421Z,13.38
2022-11-20T05:03:46.099Z,12.95
2022-11-20T05:06:49.259Z,12.00
2022-11-20T05:09:51.810Z,11.70
2022-11-20T05:12:54.888Z,12.27
2022-11-20T05:16:03.372Z,13.13
2022-11-20T05:19:06.246Z,12.30
2022-11-20T05:22:08.784Z,12.90
2022-11-20T05:25:12.881Z,11.57
2022-11-20T05:28:15.399Z,12.30
2022-11-20T05:31:28.162Z,11.40
2022-11-20T05:34:31.129Z,11.40
2022-11-20T05:37:34.142Z,10.63
2022-11-20T05:40:37.302Z,10.23
2022-11-20T05:43:41.731Z,11.55
2022-11-20T05:46:44.325Z,11.15
2022-11-20T05:49:47.300Z,10.25
2022-11-20T05:52:50.880Z,11.73
2022-11-20T05:56:02.133Z,10.40
2022-11-20T05:59:04.733Z,11.50
2022-11-20T06:02:07.608Z,11.52
2022-11-20T06:05:10.544Z,11.55
2022-11-20T06:08:13.265Z,12.03
2022-11-20T06:11:17.566Z,8.73
2022-11-20T06:14:20.245Z,12.35
2022-11-20T06:17:23.113Z,14.32
2022-11-20T06:20:25.735Z,14.10
2022-11-20T06:23:30.455Z,17.00
2022-11-20T06:26:33.136Z,16.63
2022-11-20T06:29:36.144Z,13.48
2022-11-20T06:32:38.771Z,13.82
2022-11-20T06:35:41.717Z,18.10
2022-11-20T06:38:44.562Z,17.03
2022-11-20T06:41:47.651Z,16.87
2022-11-20T06:44:50.225Z,14.43
2022-11-20T06:47:53.236Z,13.90
2022-11-20T06:50:56.402Z,13.62
2022-11-20T06:53:59.307Z,12.37
2022-11-20T06:57:02.015Z,12.60
2022-11-20T07:00:05.436Z,13.38
2022-11-20T07:03:10.112Z,12.98
2022-11-20T07:06:12.991Z,12.80
2022-11-20T07:09:15.859Z,13.10
2022-11-20T07:12:18.770Z,16.33
2022-11-20T07:15:23.495Z,15.98
2022-11-20T07:18:26.349Z,13.73
2022-11-20T07:21:29.007Z,14.02
2022-11-20T07:24:31.887Z,12.97
2022-11-20T07:27:34.569Z,13.63
2022-11-20T07:30:37.603Z,13.15
2022-11-20T07:33:40.434Z,13.82
2022-11-20T07:36:43.357Z,11.85
2022-11-20T07:39:46.119Z,13.80
2022-11-20T07:42:56.359Z,14.80
2022-11-20T07:46:01.181Z,16.52
2022-11-20T07:49:05.811Z,15.27
2022-11-20T07:52:10.541Z,13.90
2022-11-20T07:55:16.440Z,13.53
2022-11-20T07:58:21.249Z,15.00
2022-11-20T08:01:24.132Z,13.45
2022-11-20T08:04:27.121Z,12.65
2022-11-20T08:07:29.703Z,11.82
2022-11-20T08:10:32.926Z,12.50
2022-11-20T08:13:54.291Z,12.97
2022-11-20T08:16:57.531Z,11.60
2022-11-20T08:20:00.256Z,11.77
2022-11-20T08:23:06.517Z,10.70
2022-11-20T08:26:09.168Z,12.43
2022-11-20T08:29:12.287Z,10.83
2022-11-20T08:32:14.938Z,12.43
2022-11-20T08:35:17.971Z,10.82
2022-11-20T08:38:20.586Z,13.20
2022-11-20T08:41:27.840Z,10.80
2022-11-20T08:44:30.420Z,13.33
2022-11-20T08:47:33.352Z,11.20
2022-11-20T08:50:37.391Z,12.95
2022-11-20T08:53:41.346Z,12.60
2022-11-20T08:56:43.905Z,12.60
2022-11-20T09:03:09.856Z,13.27
2022-11-20T09:06:13.540Z,13.73
2022-11-20T09:09:16.100Z,12.68
2022-11-20T09:12:19.450Z,11.63
2022-11-20T09:15:22.760Z,12.30
2022-11-20T09:18:26.876Z,11.88
2022-11-20T09:21:30.089Z,12.05
2022-11-20T09:24:33.012Z,12.27
2022-11-20T09:27:36.778Z,14.10
2022-11-20T09:30:39.774Z,13.33
2022-11-20T09:33:42.458Z,12.63
2022-11-20T09:36:46.286Z,12.75
2022-11-20T09:39:48.871Z,16.62
2022-11-20T09:43:07.425Z,13.00
2022-11-20T09:46:13.008Z,13.73
2022-11-20T09:49:33.716Z,13.32
2022-11-20T09:52:48.636Z,14.65
2022-11-20T09:55:52.301Z,15.73
2022-11-20T09:59:03.410Z,13.70
2022-11-20T10:02:31.858Z,13.33
2022-11-20T10:05:48.321Z,13.60
2022-11-20T10:09:08.110Z,13.20
2022-11-20T10:12:22.951Z,13.93
2022-11-20T10:15:37.302Z,14.83
2022-11-20T10:18:46.443Z,14.53
2022-11-20T10:21:58.046Z,14.57
2022-11-20T10:25:19.365Z,14.32
2022-11-20T10:28:41.077Z,15.20
2022-11-20T10:31:48.149Z,13.37
2022-11-20T10:35:26.828Z,14.77
2022-11-20T10:38:44.304Z,15.23
2022-11-20T10:41:52.079Z,13.13
2022-11-20T10:45:14.733Z,15.48
2022-11-20T10:48:28.662Z,14.83
2022-11-20T10:51:50.748Z,17.07
2022-11-20T10:55:07.267Z,16.70
2022-11-20T10:58:32.956Z,15.85
2022-11-20T11:01:42.917Z,14.30
2022-11-20T11:04:54.730Z,14.13
2022-11-20T11:07:59.811Z,8.17
2022-11-20T11:11:19.511Z,15.15
2022-11-20T11:14:22.133Z,10.38
2022-11-20T11:17:33.504Z,14.50
2022-11-20T11:20:36.080Z,14.97
2022-11-20T11:23:44.290Z,15.00
2022-11-20T11:27:12.381Z,15.63
2022-11-20T11:30:21.177Z,15.50
2022-11-20T11:33:35.020Z,14.70
2022-11-20T11:36:38.153Z,15.20
2022-11-20T11:39:43.263Z,16.80
2022-11-20T11:42:55.141Z,14.82
2022-11-20T11:45:58.311Z,16.62
2022-11-20T11:49:10.370Z,16.65
2022-11-20T11:52:17.549Z,15.57
2022-11-20T11:55:29.062Z,15.63
2022-11-20T11:58:53.247Z,15.68
2022-11-20T12:02:02.441Z,15.95
2022-11-20T12:05:44.716Z,16.27
2022-11-20T12:08:49.933Z,14.50
2022-11-20T12:12:04.674Z,15.70
2022-11-20T12:15:14.108Z,15.30
2022-11-20T12:18:21.273Z,16.08
2022-11-20T12:21:24.055Z,15.48
2022-11-20T12:24:42.206Z,17.13
2022-11-20T12:27:51.385Z,16.23
2022-11-20T12:31:32.137Z,16.50
2022-11-20T12:35:00.557Z,15.95
2022-11-20T12:38:18.977Z,16.00
2022-11-20T12:42:00.192Z,15.67
2022-11-20T12:45:28.037Z,17.50
2022-11-20T12:48:46.791Z,15.50
2022-11-20T12:52:21.064Z,15.82
2022-11-20T12:55:42.458Z,15.75
2022-11-20T12:59:21.452Z,15.83
2022-11-20T13:02:39.063Z,17.23
2022-11-20T13:05:45.611Z,16.52
2022-11-20T13:08:55.805Z,15.02
2022-11-20T13:12:15.687Z,15.98
2022-11-20T13:15:54.207Z,16.07
2022-11-20T13:18:57.737Z,15.40
2022-11-20T13:22:00.562Z,16.42
2022-11-20T13:25:04.093Z,16.10
2022-11-20T13:28:30.809Z,16.17
2022-11-20T13:31:36.513Z,15.97
2022-11-20T13:34:40.692Z,16.12
2022-11-20T13:37:45.250Z,16.50
2022-11-20T13:40:56.180Z,14.77
2022-11-20T13:44:09.124Z,17.77
2022-11-20T13:47:27.516Z,19.17
2022-11-20T13:50:50.712Z,18.42
2022-11-20T13:54:22.717Z,14.98
2022-11-20T13:57:51.504Z,15.80
2022-11-20T14:01:11.149Z,16.37
2022-11-20T14:04:28.041Z,15.70
2022-11-20T14:07:42.597Z,16.92
2022-11-20T14:10:46.204Z,14.98
2022-11-20T14:14:06.420Z,14.40
2022-11-20T14:17:19.399Z,15.57
2022-11-20T14:20:27.033Z,14.50
2022-11-20T14:23:30.944Z,15.82
2022-11-20T14:26:37.533Z,14.98
2022-11-20T14:29:42.143Z,15.38
2022-11-20T14:32:47.551Z,16.77
2022-11-20T14:35:56.602Z,15.50
2022-11-20T14:38:59.540Z,16.05
2022-11-20T14:42:04.463Z,16.35
2022-11-20T14:45:13.279Z,16.27
2022-11-20T14:48:17.089Z,15.77
2022-11-20T14:51:48.014Z,15.17
2022-11-20T14:54:53.605Z,15.27
2022-11-20T14:57:58.619Z,14.70
2022-11-20T15:01:08.136Z,16.15
2022-11-20T15:04:13.070Z,14.57
2022-11-20T15:07:31.547Z,16.77
2022-11-20T15:10:34.427Z,15.88
2022-11-20T15:13:40.751Z,16.10
2022-11-20T15:16:43.460Z,15.70
2022-11-20T15:19:46.688Z,16.87
2022-11-20T15:22:49.385Z,16.40
2022-11-20T15:25:52.597Z,15.82
2022-11-20T15:28:55.920Z,18.02
2022-11-20T15:31:59.883Z,17.12
2022-11-20T15:35:03.015Z,15.67
2022-11-20T15:38:06.493Z,17.57
2022-11-20T15:41:09.831Z,18.87
2022-11-20T15:44:13.283Z,20.25
2022-11-20T15:47:16.394Z,18.90
2022-11-20T15:50:19.929Z,21.80
2022-11-20T15:53:23.203Z,25.13
2022-11-20T15:56:27.699Z,34.25
2022-11-20T15:59:30.914Z,38.33
2022-11-20T16:02:34.258Z,49.70
2022-11-20T16:05:37.648Z,24.07
2022-11-20T16:08:40.614Z,19.23
2022-11-20T16:11:43.975Z,20.65
2022-11-20T16:15:08.229Z,22.23
2022-11-20T16:18:25.158Z,21.35
2022-11-20T16:21:32.709Z,22.50
2022-11-20T16:24:36.154Z,21.80
2022-11-20T16:27:39.832Z,25.75
2022-11-20T16:30:43.807Z,27.70
2022-11-20T16:33:54.328Z,32.72
2022-11-20T16:36:57.363Z,31.07
2022-11-20T16:40:01.367Z,44.97
2022-11-20T16:43:15.668Z,45.17
2022-11-20T16:46:20.750Z,82.62
2022-11-20T16:49:26.046Z,44.20
2022-11-20T16:52:33.271Z,46.00
2022-11-20T16:55:37.516Z,37.55
2022-11-20T16:58:40.680Z,37.65
2022-11-20T17:01:45.254Z,45.20
2022-11-20T17:08:10.003Z,52.80
2022-11-20T17:11:15.383Z,46.53
2022-11-20T17:14:18.894Z,50.45
2022-11-20T17:17:21.608Z,48.00
2022-11-20T17:20:25.037Z,48.87
2022-11-20T17:23:33.235Z,53.43
2022-11-20T17:26:38.853Z,69.90
2022-11-20T17:29:42.384Z,56.75
2022-11-20T17:32:47.625Z,50.33
2022-11-20T17:35:50.698Z,45.17
2022-11-20T17:38:54.080Z,45.73
2022-11-20T17:42:16.105Z,46.33
2022-11-20T17:45:19.518Z,46.53
2022-11-20T17:48:22.986Z,46.67
2022-11-20T17:51:28.449Z,47.08
2022-11-20T17:54:33.284Z,47.17
2022-11-20T17:57:56.880Z,46.85
2022-11-20T18:01:06.485Z,49.22
2022-11-20T18:04:11.243Z,50.22
2022-11-20T18:07:14.352Z,48.72
2022-11-20T18:10:17.952Z,49.57
2022-11-20T18:13:21.193Z,47.97
2022-11-20T18:16:27.638Z,46.92
2022-11-20T18:19:42.720Z,47.13
2022-11-20T18:22:54.473Z,47.28
2022-11-20T18:26:01.195Z,47.33
2022-11-20T18:29:07.405Z,43.17
2022-11-20T18:32:10.734Z,56.75
2022-11-20T18:35:14.309Z,39.05
2022-11-20T18:38:18.038Z,42.30
2022-11-20T18:41:44.051Z,38.43
2022-11-20T18:44:53.368Z,34.97
2022-11-20T18:47:56.942Z,30.83
2022-11-20T18:51:09.356Z,26.70
2022-11-20T18:54:13.558Z,25.93
2022-11-20T18:57:21.571Z,28.00
2022-11-20T19:00:25.411Z,32.90
2022-11-20T19:03:28.764Z,29.60
2022-11-20T19:06:32.339Z,31.07
2022-11-20T19:09:35.837Z,33.13
2022-11-20T19:12:39.311Z,34.97
2022-11-20T19:15:42.574Z,34.63
2022-11-20T19:18:46.333Z,36.17
2022-11-20T19:21:50.954Z,30.63
2022-11-20T19:24:54.415Z,31.85
2022-11-20T19:27:57.803Z,32.30
2022-11-20T19:31:09.521Z,33.20
2022-11-20T19:34:12.722Z,29.97
2022-11-20T19:37:16.112Z,28.73
2022-11-20T19:40:19.312Z,29.05
2022-11-20T19:43:22.791Z,30.52
2022-11-20T19:46:27.098Z,32.15
2022-11-20T19:49:30.530Z,29.80
2022-11-20T19:52:34.603Z,38.22
2022-11-20T19:55:39.451Z,48.63
2022-11-20T19:58:43.149Z,47.65
2022-11-20T20:01:47.403Z,51.00
2022-11-20T20:04:50.553Z,40.17
2022-11-20T20:07:53.656Z,34.28
2022-11-20T20:10:59.606Z,30.83
2022-11-20T20:14:08.906Z,30.08
2022-11-20T20:17:13.176Z,28.30
2022-11-20T20:20:19.150Z,28.37
2022-11-20T20:23:23.707Z,32.72
2022-11-20T20:26:28.813Z,28.67
2022-11-20T20:29:32.830Z,29.05
2022-11-20T20:32:36.781Z,24.60
2022-11-20T20:35:43.507Z,27.13
2022-11-20T20:38:47.024Z,26.60
2022-11-20T20:41:50.799Z,25.20
2022-11-20T20:45:08.612Z,27.95
2022-11-20T20:48:15.077Z,26.00
2022-11-20T20:51:18.125Z,24.60
2022-11-20T20:54:21.794Z,26.10
2022-11-20T20:57:25.617Z,27.15
2022-11-20T21:00:29.979Z,26.12
2022-11-20T21:03:34.619Z,27.98
2022-11-20T21:06:38.050Z,27.70
2022-11-20T21:09:41.141Z,26.45
2022-11-20T21:12:44.132Z,25.33
2022-11-20T21:15:51.593Z,26.45
2022-11-20T21:18:56.633Z,25.92
2022-11-20T21:21:59.484Z,26.67
2022-11-20T21:25:02.390Z,29.85
2022-11-20T21:28:05.067Z,28.60
2022-11-20T21:31:09.288Z,28.75
2022-11-20T21:34:13.340Z,30.15
2022-11-20T21:37:16.532Z,28.25
2022-11-20T21:40:19.117Z,27.90
2022-11-20T21:43:22.549Z,29.85
2022-11-20T21:46:25.352Z,29.37
2022-11-20T21:49:28.353Z,31.62
2022-11-20T21:52:30.957Z,32.17
2022-11-20T21:55:33.936Z,30.70
2022-11-20T21:58:38.008Z,31.45
2022-11-20T22:01:41.811Z,31.05
2022-11-20T22:04:44.831Z,35.45
2022-11-20T22:07:47.384Z,37.10
2022-11-20T22:10:56.845Z,35.80
2022-11-20T22:14:18.175Z,31.12
2022-11-20T22:17:41.022Z,29.77
2022-11-20T22:20:43.753Z,30.33
2022-11-20T22:23:46.865Z,29.53
2022-11-20T22:26:49.989Z,27.70
2022-11-20T22:29:52.940Z,26.42
2022-11-20T22:32:56.574Z,25.58
2022-11-20T22:36:02.915Z,24.52
2022-11-20T22:39:06.177Z,24.87
2022-11-20T22:42:09.099Z,26.25
2022-11-20T22:45:12.197Z,24.25
2022-11-20T22:48:15.134Z,23.23
2022-11-20T22:51:20.401Z,21.40
2022-11-20T22:54:23.437Z,22.83
2022-11-20T22:57:26.128Z,21.67
2022-11-20T23:00:29.097Z,20.85
2022-11-20T23:03:31.771Z,20.93
2022-11-20T23:06:34.963Z,20.05
2022-11-20T23:09:37.526Z,21.25
2022-11-20T23:12:40.747Z,21.35
2022-11-20T23:15:44.575Z,19.50
2022-11-20T23:18:48.721Z,23.30
2022-11-20T23:21:51.359Z,23.00
2022-11-20T23:24:54.297Z,23.87
2022-11-20T23:27:56.853Z,22.53
2022-11-20T23:30:59.967Z,22.33
2022-11-20T23:34:02.765Z,25.83
2022-11-20T23:37:05.663Z,24.75
2022-11-20T23:40:08.592Z,23.55
2022-11-20T23:43:17.373Z,25.27
2022-11-20T23:46:20.029Z,25.45
2022-11-20T23:49:22.942Z,24.45
2022-11-20T23:52:26.588Z,22.85
2022-11-20T23:55:29.771Z,26.17
2022-11-20T23:58:35.567Z,25.30
